Time;durP1;ratioP1;P1;durP2;ratioP2;P2;SDS_P1;SDS_P2;PMS_P1;PMS_P2;Temp;Humidity;BMP_temperature;BMP_pressure;BME280_temperature;BME280_humidity;BME280_pressure;Samples;Min_cycle;Max_cycle;Signal;HPM_P1;HPM_P2
2022/04/23 00:01:48;;;;;;;32.95;30.77;;;;;;;14.88;100.00;99950.25;4949539;29;21691;-81
2022/04/23 00:04:16;;;;;;;32.75;31.13;;;;;;;14.88;100.00;99955.59;4946869;28;20473;-80
2022/04/23 00:06:44;;;;;;;34.38;32.65;;;;;;;14.85;100.00;99954.22;4951553;29;20055;-81
2022/04/23 00:09:11;;;;;;;34.28;32.28;;;;;;;14.87;100.00;99954.00;4949905;29;20134;-80
2022/04/23 00:11:43;;;;;;;35.05;32.83;;;;;;;14.86;100.00;99965.75;4940624;28;20047;-80
2022/04/23 00:14:10;;;;;;;34.78;32.28;;;;;;;14.57;100.00;99955.28;4952115;28;20432;-81
2022/04/23 00:16:37;;;;;;;37.80;35.50;;;;;;;14.54;100.00;99960.31;4955455;28;20047;-82
2022/04/23 00:19:04;;;;;;;34.30;31.92;;;;;;;14.52;100.00;99955.22;4944504;29;20421;-80
2022/04/23 00:21:31;;;;;;;36.05;33.88;;;;;;;14.52;100.00;99952.53;4942835;28;20106;-82
2022/04/23 00:23:58;;;;;;;42.25;38.92;;;;;;;14.39;100.00;99948.38;4951629;28;20039;-82
2022/04/23 00:26:25;;;;;;;41.78;38.85;;;;;;;14.43;100.00;99948.66;4943901;28;20043;-80
2022/04/23 00:28:54;;;;;;;32.03;30.00;;;;;;;14.12;100.00;99944.81;4950140;28;20493;-79
2022/04/23 00:31:21;;;;;;;33.38;31.38;;;;;;;14.17;100.00;99951.03;4948732;28;20075;-81
2022/04/23 00:33:48;;;;;;;31.40;29.63;;;;;;;14.13;100.00;99946.44;4954691;28;20102;-80
2022/04/23 00:36:23;;;;;;;34.35;31.80;;;;;;;14.27;100.00;99958.38;4945479;29;20055;-81
2022/04/23 00:38:52;;;;;;;32.35;30.40;;;;;;;14.32;100.00;99945.09;4942393;29;20123;-83
2022/04/23 00:44:07;;;;;;;35.50;33.60;;;;;;;13.73;100.00;99948.31;4945779;29;20134;-81
2022/04/23 00:46:38;;;;;;;33.65;31.48;;;;;;;13.59;100.00;99952.38;4944200;28;20044;-82
2022/04/23 00:49:07;;;;;;;36.95;34.90;;;;;;;13.46;100.00;99958.88;4941010;29;20044;-80
2022/04/23 00:51:35;;;;;;;35.15;32.90;;;;;;;13.65;100.00;99954.06;4943467;29;20039;-80
2022/04/23 00:54:07;;;;;;;34.00;31.90;;;;;;;13.21;100.00;99958.41;4945346;29;20118;-81
2022/04/23 00:56:35;;;;;;;33.45;31.00;;;;;;;13.16;100.00;99953.81;4945934;29;20516;-81
2022/04/23 00:59:08;;;;;;;40.28;38.17;;;;;;;13.20;100.00;99957.59;4938862;29;20043;-81
2022/04/23 01:01:35;;;;;;;37.58;35.58;;;;;;;13.23;100.00;99957.13;4940507;29;20050;-81
2022/04/23 01:04:06;;;;;;;36.25;34.15;;;;;;;13.08;100.00;99954.22;4954027;28;20052;-80
2022/04/23 01:06:35;;;;;;;36.28;33.83;;;;;;;12.73;100.00;99965.84;4948029;28;20035;-82
2022/04/23 01:09:07;;;;;;;41.97;39.20;;;;;;;13.04;100.00;99959.22;4940179;28;20487;-81
2022/04/23 01:11:34;;;;;;;;;;;;;;;12.67;100.00;99955.31;4937261;29;20494;-81
2022/04/23 01:14:02;;;;;;;36.65;34.45;;;;;;;12.96;100.00;99953.47;4938063;29;20285;-80
2022/04/23 01:16:32;;;;;;;37.83;35.70;;;;;;;12.91;100.00;99959.50;4949621;28;20051;-82
2022/04/23 01:18:59;;;;;;;35.72;33.45;;;;;;;12.94;100.00;99956.34;4944752;28;20122;-80
2022/04/23 01:21:27;;;;;;;37.95;35.60;;;;;;;12.54;100.00;99965.22;4939957;29;20050;-81
2022/04/23 01:23:57;;;;;;;36.80;34.47;;;;;;;12.88;100.00;99954.66;4941466;29;20053;-82
2022/04/23 01:26:27;;;;;;;35.10;33.20;;;;;;;13.00;100.00;99965.25;4942822;28;20044;-80
2022/04/23 01:28:55;;;;;;;36.30;34.10;;;;;;;13.09;100.00;99955.81;4950641;28;20130;-81
2022/04/23 01:31:22;;;;;;;34.92;32.67;;;;;;;12.96;100.00;99961.47;4942724;28;20053;-80
2022/04/23 01:33:50;;;;;;;34.25;32.25;;;;;;;13.05;100.00;99962.69;4940626;29;20086;-81
2022/04/23 01:36:18;;;;;;;34.80;32.80;;;;;;;12.87;100.00;99968.22;4939701;28;20052;-80
2022/04/23 01:38:50;;;;;;;37.70;35.25;;;;;;;12.83;100.00;99963.38;4942522;29;20102;-81
2022/04/23 01:41:20;;;;;;;52.15;48.13;;;;;;;12.54;100.00;99965.22;4944441;29;20051;-80
2022/04/23 01:43:46;;;;;;;96.72;87.00;;;;;;;12.25;100.00;99968.88;4945406;29;20047;-79
2022/04/23 01:46:13;;;;;;;66.10;60.17;;;;;;;12.24;100.00;99965.41;4950848;28;20091;-81
2022/04/23 01:48:40;;;;;;;65.95;60.45;;;;;;;12.02;100.00;99965.22;4953059;28;20039;-80
2022/04/23 01:51:09;;;;;;;48.47;45.30;;;;;;;11.98;100.00;99966.75;4944210;29;20043;-81
2022/04/23 01:53:38;;;;;;;49.47;46.28;;;;;;;11.43;100.00;99969.69;4935636;29;20387;-79
2022/04/23 01:56:12;;;;;;;47.45;43.97;;;;;;;11.67;100.00;99959.88;4940798;29;20047;-80
2022/04/23 01:58:39;;;;;;;44.58;41.75;;;;;;;11.75;100.00;99964.06;4951169;28;20051;-79
2022/04/23 02:01:05;;;;;;;54.47;51.50;;;;;;;11.76;100.00;99960.34;4952631;28;20044;-80
2022/04/23 02:03:34;;;;;;;47.13;44.05;;;;;;;11.53;100.00;99959.31;4940940;28;20043;-79
2022/04/23 02:06:01;;;;;;;48.15;44.67;;;;;;;11.72;100.00;99964.53;4939354;29;20575;-80
2022/04/23 02:08:28;;;;;;;47.17;44.15;;;;;;;11.72;100.00;99961.84;4951252;28;20094;-81
2022/04/23 02:10:55;;;;;;;45.53;42.65;;;;;;;11.98;100.00;99953.44;4944181;28;20095;-81
2022/04/23 02:13:24;;;;;;;44.83;41.83;;;;;;;11.30;100.00;99965.41;4953521;28;20055;-79
2022/04/23 02:15:52;;;;;;;43.15;40.15;;;;;;;11.15;100.00;99962.38;4935561;29;20417;-80
2022/04/23 02:18:21;;;;;;;43.88;41.45;;;;;;;11.64;100.00;99963.00;4943706;29;20193;-81
2022/04/23 02:20:51;;;;;;;45.20;42.03;;;;;;;11.64;100.00;99955.81;4939870;29;20047;-80
2022/04/23 02:23:18;;;;;;;41.85;38.92;;;;;;;12.13;100.00;99948.44;4943512;28;20039;-82
2022/04/23 02:25:46;;;;;;;40.10;37.63;;;;;;;12.18;100.00;99950.38;4935148;29;20079;-81
2022/04/23 02:28:14;;;;;;;43.47;40.67;;;;;;;12.13;100.00;99971.56;4934912;29;20118;-80
2022/04/23 02:30:42;;;;;;;38.50;36.22;;;;;;;12.61;100.00;99973.88;4943012;29;20052;-81
2022/04/23 02:33:09;;;;;;;38.80;36.58;;;;;;;12.67;100.00;99979.31;4939879;28;20099;-80
2022/04/23 02:35:39;;;;;;;39.95;38.00;;;;;;;12.65;100.00;99992.03;4941585;29;20126;-81
2022/04/23 02:38:09;;;;;;;35.88;33.75;;;;;;;13.05;100.00;100006.13;4951487;28;20496;-81
2022/04/23 02:40:38;;;;;;;39.03;36.67;;;;;;;13.38;100.00;100015.28;4944484;29;20090;-80
2022/04/23 02:43:05;;;;;;;40.10;37.38;;;;;;;12.98;100.00;100026.81;4939931;29;20051;-80
2022/04/23 02:45:32;;;;;;;37.47;35.35;;;;;;;11.84;100.00;100037.97;4945389;28;20052;-80
2022/04/23 02:48:02;;;;;;;38.30;36.10;;;;;;;11.55;100.00;100060.13;4946693;29;20070;-80
2022/04/23 02:50:31;;;;;;;38.38;36.10;;;;;;;11.44;100.00;100072.38;4945198;29;20047;-80
2022/04/23 02:53:00;;;;;;;43.50;41.17;;;;;;;12.06;100.00;100067.50;4945408;29;20047;-81
2022/04/23 02:55:28;;;;;;;37.38;35.22;;;;;;;11.75;100.00;100073.94;4947114;29;20048;-81
2022/04/23 02:57:57;;;;;;;38.38;36.20;;;;;;;11.39;100.00;100075.69;4936139;28;20123;-80
2022/04/23 03:00:24;;;;;;;38.17;35.45;;;;;;;11.73;100.00;100075.19;4943313;28;20122;-81
2022/04/23 03:02:54;;;;;;;44.30;41.90;;;;;;;11.10;100.00;100071.19;4948711;29;20424;-82
2022/04/23 03:05:26;;;;;;;46.35;43.38;;;;;;;10.59;100.00;100075.91;4940814;28;20067;-80
2022/04/23 03:07:54;;;;;;;44.13;41.22;;;;;;;10.59;100.00;100067.13;4944347;29;20050;-81
2022/04/23 03:10:23;;;;;;;41.03;38.13;;;;;;;10.47;100.00;100056.44;4942455;28;20051;-81
2022/04/23 03:12:50;;;;;;;40.42;37.58;;;;;;;10.39;100.00;100062.03;4934796;29;20467;-80
2022/04/23 03:15:19;;;;;;;41.72;39.10;;;;;;;9.72;100.00;100061.81;4945385;29;20046;-79
2022/04/23 03:17:47;;;;;;;42.05;39.15;;;;;;;10.00;100.00;100056.03;4947844;29;20449;-80
2022/04/23 03:20:15;;;;;;;39.47;36.92;;;;;;;10.24;100.00;100059.69;4945036;29;20047;-81
2022/04/23 03:22:46;;;;;;;34.05;31.60;;;;;;;10.34;100.00;100072.50;4942414;28;20055;-81
2022/04/23 03:25:16;;;;;;;33.90;31.35;;;;;;;10.39;100.00;100073.47;4943608;28;20047;-81
2022/04/23 03:27:46;;;;;;;36.17;33.50;;;;;;;10.34;100.00;100080.47;4934296;29;20126;-80
2022/04/23 03:30:13;;;;;;;34.47;31.85;;;;;;;10.45;100.00;100083.19;4945025;29;20058;-82
2022/04/23 03:32:41;;;;;;;35.35;32.75;;;;;;;10.16;100.00;100086.50;4947936;28;20043;-81
2022/04/23 03:35:09;;;;;;;35.10;32.33;;;;;;;9.87;100.00;100091.47;4934116;29;20059;-81
2022/04/23 03:37:38;;;;;;;34.13;31.35;;;;;;;9.59;100.00;100099.81;4944881;29;20110;-81
2022/04/23 03:40:11;;;;;;;33.92;31.13;;;;;;;9.73;100.00;100098.69;4947181;28;20043;-82
2022/04/23 03:42:39;;;;;;;33.38;30.75;;;;;;;9.82;100.00;100092.09;4939483;29;20059;-81
2022/04/23 03:45:07;;;;;;;34.55;31.92;;;;;;;9.30;100.00;100093.28;4945130;28;20051;-82
2022/04/23 03:47:35;;;;;;;31.13;29.00;;;;;;;9.22;100.00;100096.16;4943097;28;20497;-81
2022/04/23 03:50:04;;;;;;;29.20;27.00;;;;;;;9.18;100.00;100093.94;4950681;28;20460;-80
2022/04/23 03:52:31;;;;;;;34.08;31.20;;;;;;;9.27;100.00;100091.03;4943590;28;20043;-81
2022/04/23 03:54:58;;;;;;;32.33;29.83;;;;;;;9.41;100.00;100103.22;4944434;28;20043;-81
2022/04/23 03:57:31;;;;;;;30.52;28.13;;;;;;;9.69;100.00;100110.78;4949374;29;20043;-81
2022/04/23 04:00:04;;;;;;;31.85;28.98;;;;;;;9.71;100.00;100103.41;4945903;28;20052;-80
2022/04/23 04:02:32;;;;;;;32.50;30.00;;;;;;;9.98;100.00;100105.84;4946869;29;20508;-82
2022/04/23 04:04:59;;;;;;;32.80;30.45;;;;;;;10.01;100.00;100105.41;4945410;28;20086;-80
2022/04/23 04:07:25;;;;;;;32.50;29.77;;;;;;;10.08;100.00;100106.19;4945058;29;20051;-81
2022/04/23 04:09:56;;;;;;;32.38;30.10;;;;;;;10.21;100.00;100103.41;4951390;28;20486;-82
2022/04/23 04:12:25;;;;;;;32.63;30.17;;;;;;;10.23;100.00;100105.84;4943292;28;20417;-82
2022/04/23 04:14:57;;;;;;;31.58;29.33;;;;;;;10.39;100.00;100107.16;4943126;29;20085;-81
2022/04/23 04:17:25;;;;;;;33.03;29.73;;;;;;;10.65;100.00;100098.09;4946395;29;20053;-81
2022/04/23 04:19:56;;;;;;;33.40;30.92;;;;;;;10.60;100.00;100098.78;4950271;29;20381;-80
2022/04/23 04:22:24;;;;;;;36.00;32.70;;;;;;;10.65;100.00;100101.59;4946563;28;20472;-80
2022/04/23 04:24:51;;;;;;;34.63;32.03;;;;;;;10.95;100.00;100084.88;4951417;28;20047;-80
2022/04/23 04:27:18;;;;;;;33.40;30.40;;;;;;;11.26;100.00;100091.03;4949369;29;20563;-80
2022/04/23 04:29:45;;;;;;;35.53;32.33;;;;;;;11.31;100.00;100097.28;4946147;28;20532;-80
2022/04/23 04:32:15;;;;;;;37.95;34.45;;;;;;;11.75;100.00;100103.19;4942421;29;20138;-82
2022/04/23 04:34:42;;;;;;;37.92;34.08;;;;;;;11.55;100.00;100102.69;4951160;29;20047;-80
2022/04/23 04:37:11;;;;;;;36.17;33.10;;;;;;;11.69;100.00;100096.94;4951619;28;20048;-80
2022/04/23 04:39:43;;;;;;;34.90;32.00;;;;;;;11.98;100.00;100099.81;4945847;29;20051;-81
2022/04/23 04:42:11;;;;;;;34.92;32.15;;;;;;;12.12;100.00;100101.19;4943116;28;20941;-80
2022/04/23 04:44:40;;;;;;;33.72;30.92;;;;;;;12.24;100.00;100098.53;4951842;28;20115;-81
2022/04/23 04:47:09;;;;;;;35.72;32.58;;;;;;;12.43;100.00;100095.75;4940235;29;20457;-81
2022/04/23 04:49:38;;;;;;;34.20;31.90;;;;;;;12.43;100.00;100095.75;4943083;29;20043;-81
2022/04/23 04:52:08;;;;;;;35.45;32.67;;;;;;;12.56;100.00;100091.00;4946353;29;20047;-80
2022/04/23 04:54:35;;;;;;;36.80;33.58;;;;;;;12.74;100.00;100092.69;4942507;28;20043;-80
2022/04/23 04:57:05;;;;;;;36.53;33.40;;;;;;;12.77;100.00;100094.91;4945122;29;20040;-81
2022/04/23 04:59:32;;;;;;;37.05;34.05;;;;;;;12.94;100.00;100102.16;4944267;28;20122;-80
2022/04/23 05:02:00;;;;;;;36.25;33.17;;;;;;;13.17;100.00;100094.06;4945323;29;20123;-80
2022/04/23 05:04:27;;;;;;;35.08;32.38;;;;;;;13.32;100.00;100096.25;4946988;28;20121;-80
2022/04/23 05:06:57;;;;;;;35.28;32.25;;;;;;;13.60;100.00;100084.72;4940961;29;20052;-81
2022/04/23 05:09:23;;;;;;;32.22;29.83;;;;;;;13.60;100.00;100087.41;4952039;29;20465;-79
2022/04/23 05:11:51;;;;;;;30.05;28.05;;;;;;;13.88;100.00;100088.38;4944874;29;20054;-81
2022/04/23 05:14:21;;;;;;;33.95;31.25;;;;;;;13.98;100.00;100088.56;4950094;28;20052;-80
2022/04/23 05:16:47;;;;;;;31.33;29.13;;;;;;;14.21;100.00;100088.34;4947800;29;20055;-81
2022/04/23 05:19:15;;;;;;;30.60;28.70;;;;;;;14.10;100.00;100081.28;4953144;28;20051;-80
2022/04/23 05:21:42;;;;;;;31.35;28.95;;;;;;;14.42;100.00;100089.47;4935588;29;20052;-80
2022/04/23 05:24:11;;;;;;;30.90;28.63;;;;;;;14.44;100.00;100097.25;4941717;29;20126;-81
2022/04/23 05:26:37;;;;;;;31.10;28.23;;;;;;;14.33;100.00;100098.16;4946127;28;20055;-81
2022/04/23 05:29:04;;;;;;;31.83;28.90;;;;;;;14.49;100.00;100104.50;4949610;28;20489;-80
2022/04/23 05:31:32;;;;;;;30.02;27.88;;;;;;;14.61;100.00;100115.91;4946246;28;20102;-80
2022/04/23 05:34:01;;;;;;;30.13;27.75;;;;;;;14.68;100.00;100111.22;4944136;29;20054;-79
2022/04/23 05:36:28;;;;;;;30.83;28.50;;;;;;;14.63;100.00;100121.84;4941249;29;20414;-80
2022/04/23 05:38:56;;;;;;;33.25;30.05;;;;;;;14.67;100.00;100112.25;4945803;28;20047;-80
2022/04/23 05:41:24;;;;;;;31.10;28.83;;;;;;;14.73;100.00;100119.28;4946959;28;20047;-80
2022/04/23 05:43:51;;;;;;;31.02;28.92;;;;;;;14.59;100.00;100120.72;4942423;28;20431;-81
2022/04/23 05:46:18;;;;;;;31.25;29.00;;;;;;;14.60;100.00;100117.78;4938666;28;20040;-80
2022/04/23 05:48:45;;;;;;;30.90;28.60;;;;;;;14.44;100.00;100119.41;4940086;29;20047;-81
2022/04/23 05:51:14;;;;;;;30.70;28.35;;;;;;;14.68;100.00;100119.25;4945246;28;20051;-79
2022/04/23 05:53:41;;;;;;;31.40;28.98;;;;;;;14.84;100.00;100120.25;4943789;29;20051;-79
2022/04/23 05:56:09;;;;;;;31.23;28.58;;;;;;;14.76;100.00;100112.66;4948213;28;20054;-80
2022/04/23 05:58:39;;;;;;;30.90;28.65;;;;;;;14.88;100.00;100110.66;4936793;29;20457;-81
2022/04/23 06:01:06;;;;;;;30.60;28.33;;;;;;;15.10;100.00;100122.16;4943354;29;20106;-81
2022/04/23 06:03:34;;;;;;;31.35;28.92;;;;;;;14.99;100.00;100117.75;4945423;28;20051;-80
2022/04/23 06:06:04;;;;;;;30.73;28.40;;;;;;;15.11;100.00;100114.94;4939226;29;20043;-79
2022/04/23 06:08:35;;;;;;;30.55;28.27;;;;;;;15.12;100.00;100129.94;4946554;29;20098;-83
2022/04/23 06:11:04;;;;;;;32.35;29.73;;;;;;;15.30;100.00;100124.25;4939459;29;20072;-81
2022/04/23 06:13:31;;;;;;;32.63;30.08;;;;;;;15.76;100.00;100134.63;4938385;29;20039;-82
2022/04/23 06:15:59;;;;;;;31.50;29.20;;;;;;;15.57;100.00;100137.63;4944783;29;20047;-78
2022/04/23 06:18:27;;;;;;;31.58;29.23;;;;;;;15.62;100.00;100136.88;4943165;28;20055;-79
2022/04/23 06:20:54;;;;;;;32.67;30.30;;;;;;;15.95;100.00;100145.78;4948118;29;20058;-79
2022/04/23 06:23:21;;;;;;;30.40;28.33;;;;;;;15.87;100.00;100155.09;4941369;28;20055;-81
2022/04/23 06:25:48;;;;;;;30.95;28.75;;;;;;;15.65;100.00;100146.28;4936836;29;20043;-82
2022/04/23 06:28:17;;;;;;;31.02;28.85;;;;;;;15.72;100.00;100162.97;4936353;29;20055;-79
2022/04/23 06:30:50;;;;;;;31.55;28.90;;;;;;;15.77;100.00;100169.19;4951953;28;20047;-79
2022/04/23 06:33:19;;;;;;;31.58;28.90;;;;;;;15.92;100.00;100171.19;4947049;29;20472;-81
2022/04/23 06:35:48;;;;;;;30.55;28.55;;;;;;;15.46;100.00;100169.91;4951541;28;20047;-80
2022/04/23 06:38:15;;;;;;;32.40;29.83;;;;;;;15.76;100.00;100174.78;4936403;29;20044;-79
2022/04/23 06:40:43;;;;;;;31.33;29.08;;;;;;;15.75;100.00;100170.50;4942998;28;20051;-83
2022/04/23 06:43:10;;;;;;;31.83;29.05;;;;;;;15.90;100.00;100169.84;4946301;29;20050;-78
2022/04/23 06:45:37;;;;;;;31.42;29.05;;;;;;;15.74;100.00;100166.22;4946936;28;20501;-78
2022/04/23 06:48:06;;;;;;;32.33;30.10;;;;;;;15.96;100.00;100172.31;4943021;29;20514;-81
2022/04/23 06:50:37;;;;;;;32.90;30.48;;;;;;;16.33;100.00;100181.44;4940839;29;20055;-83
2022/04/23 06:53:05;;;;;;;31.65;29.55;;;;;;;16.18;100.00;100187.47;4936909;29;20047;-80
2022/04/23 06:55:32;;;;;;;30.60;28.40;;;;;;;16.53;100.00;100192.31;4939978;29;20043;-81
2022/04/23 06:57:59;;;;;;;31.55;29.35;;;;;;;16.37;100.00;100204.78;4945846;29;20043;-82
2022/04/23 07:00:28;;;;;;;31.83;29.35;;;;;;;16.57;100.00;100198.75;4938088;29;20488;-80
2022/04/23 07:02:55;;;;;;;33.78;31.25;;;;;;;16.83;100.00;100196.28;4946736;28;20469;-79
2022/04/23 07:05:22;;;;;;;33.35;30.52;;;;;;;16.91;100.00;100199.28;4947543;29;20043;-80
2022/04/23 07:07:59;;;;;;;30.98;28.63;;;;;;;16.94;100.00;100206.81;4935952;28;20112;-80
2022/04/23 07:10:28;;;;;;;32.35;29.75;;;;;;;16.80;100.00;100215.56;4944812;29;20466;-79
2022/04/23 07:12:57;;;;;;;31.77;29.58;;;;;;;16.63;100.00;100221.06;4934548;29;20099;-82
2022/04/23 07:15:25;;;;;;;31.63;29.40;;;;;;;16.80;100.00;100212.88;4947893;29;20449;-81
2022/04/23 07:17:55;;;;;;;32.90;30.38;;;;;;;16.94;100.00;100225.59;4937702;28;20162;-82
2022/04/23 07:20:23;;;;;;;33.95;31.35;;;;;;;17.06;100.00;100230.72;4951542;28;20428;-80
2022/04/23 07:25:37;;;;;;;33.55;30.85;;;;;;;16.70;100.00;100235.03;4913589;29;20532;-82
2022/04/23 07:28:14;;;;;;;32.95;30.40;;;;;;;16.90;100.00;100243.25;4935106;29;20098;-82
2022/04/23 07:30:43;;;;;;;34.03;31.02;;;;;;;16.74;100.00;100249.56;4947681;28;20051;-80
2022/04/23 07:37:28;;;;;;;32.47;30.10;;;;;;;16.92;100.00;100253.72;4942209;29;20121;-80
2022/04/23 07:38:47;;;;;;;34.25;31.75;;;;;;;16.90;100.00;100253.97;4947290;29;20047;-79
2022/04/23 07:41:22;;;;;;;34.55;32.00;;;;;;;16.86;100.00;100252.09;4953140;28;20086;-79
2022/04/23 07:43:49;;;;;;;34.33;31.83;;;;;;;17.36;100.00;100253.41;4948865;28;20059;-81
2022/04/23 07:46:16;;;;;;;33.10;30.73;;;;;;;17.48;100.00;100253.19;4942429;28;20552;-79
2022/04/23 07:48:43;;;;;;;33.17;30.98;;;;;;;17.50;100.00;100267.97;4946914;29;20055;-79
2022/04/23 07:51:10;;;;;;;32.78;30.58;;;;;;;18.10;100.00;100256.88;4955157;29;20445;-80
2022/04/23 07:53:39;;;;;;;32.97;30.58;;;;;;;17.31;100.00;100266.81;4953670;28;20054;-83
2022/04/23 07:56:06;;;;;;;33.90;31.52;;;;;;;17.34;100.00;100256.38;4946440;28;20102;-81
2022/04/23 07:58:35;;;;;;;34.03;31.45;;;;;;;17.52;100.00;100256.94;4944816;28;20465;-82
2022/04/23 08:01:02;;;;;;;35.83;33.03;;;;;;;17.56;100.00;100268.81;4947152;29;20122;-78
2022/04/23 08:03:29;;;;;;;33.30;30.70;;;;;;;16.99;100.00;100270.41;4945541;29;20566;-79
2022/04/23 08:05:56;;;;;;;33.95;31.65;;;;;;;17.21;100.00;100270.25;4939347;29;20047;-82
2022/04/23 08:08:24;;;;;;;33.30;30.58;;;;;;;16.85;100.00;100272.75;4944713;29;20450;-77
2022/04/23 08:10:50;;;;;;;31.15;29.23;;;;;;;16.82;100.00;100270.53;4942987;29;20553;-81
2022/04/23 08:13:20;;;;;;;33.10;30.25;;;;;;;17.74;100.00;100268.31;4943122;28;20054;-83
2022/04/23 08:15:49;;;;;;;32.88;30.15;;;;;;;17.06;100.00;100267.47;4944077;28;20159;-80
2022/04/23 08:18:31;;;;;;;33.63;30.67;;;;;;;17.26;100.00;100274.84;4941339;29;20102;-80
2022/04/23 08:20:58;;;;;;;32.63;29.83;;;;;;;17.85;100.00;100267.31;4949738;29;20055;-82
2022/04/23 08:23:25;;;;;;;30.05;27.48;;;;;;;16.36;100.00;100275.53;4942395;28;20099;-82
2022/04/23 08:25:55;;;;;;;30.55;28.50;;;;;;;17.61;100.00;100274.19;4949385;28;20047;-77
2022/04/23 08:31:15;;;;;;;28.65;26.48;;;;;;;17.19;100.00;100272.41;4945912;29;20054;-83
2022/04/23 08:34:00;;;;;;;;;;;;;;;16.15;100.00;100273.72;4950647;28;20079;-80
2022/04/23 08:36:31;;;;;;;29.00;27.20;;;;;;;16.39;100.00;100279.56;4946843;28;19950;-81
2022/04/23 08:38:59;;;;;;;29.85;27.65;;;;;;;15.76;100.00;100287.22;4945978;28;20044;-82
2022/04/23 08:41:31;;;;;;;28.23;26.58;;;;;;;15.39;100.00;100277.13;4945163;28;20043;-83
2022/04/23 08:44:05;;;;;;;28.60;26.90;;;;;;;16.19;100.00;100281.00;4953292;28;20058;-81
2022/04/23 08:46:35;;;;;;;29.48;27.42;;;;;;;16.83;100.00;100284.78;4944500;29;20187;-83
2022/04/23 08:49:14;;;;;;;29.83;28.00;;;;;;;16.59;100.00;100277.06;4940766;29;20103;-82
2022/04/23 08:51:45;;;;;;;30.13;28.10;;;;;;;16.69;100.00;100277.13;4950598;28;20118;-80
2022/04/23 08:54:15;;;;;;;31.60;29.33;;;;;;;17.21;100.00;100283.66;4937987;28;20048;-80
2022/04/23 08:56:45;;;;;;;30.33;27.90;;;;;;;17.56;100.00;100285.72;4945758;29;20051;-84
2022/04/23 08:59:14;;;;;;;28.70;26.80;;;;;;;17.87;100.00;100282.34;4936941;29;20134;-81
2022/04/23 09:01:44;;;;;;;28.63;26.70;;;;;;;17.43;100.00;100275.47;4945321;29;20043;-81
2022/04/23 09:04:13;;;;;;;29.13;27.23;;;;;;;15.18;100.00;100277.91;4953675;28;20043;-80
2022/04/23 09:06:42;;;;;;;28.98;26.63;;;;;;;15.30;100.00;100284.78;4942759;28;20141;-82
2022/04/23 09:09:15;;;;;;;29.40;27.38;;;;;;;16.69;100.00;100287.84;4947519;29;20544;-80
2022/04/23 09:11:54;;;;;;;29.85;27.75;;;;;;;17.43;100.00;100278.16;4940100;28;20052;-85
2022/04/23 09:14:29;;;;;;;30.13;27.85;;;;;;;17.16;100.00;100284.44;4943660;29;20118;-78
2022/04/23 09:25:31;;;;;;;29.83;27.58;;;;;;;16.35;100.00;100298.03;4952379;29;20101;-83
2022/04/23 09:28:14;;;;;;;30.52;28.42;;;;;;;17.56;100.00;100295.66;4939190;28;20039;-85
2022/04/23 09:30:44;;;;;;;30.83;28.42;;;;;;;18.02;100.00;100285.88;4939520;28;20094;-83
2022/04/23 09:33:12;;;;;;;31.00;28.85;;;;;;;18.27;100.00;100295.06;4942308;29;20480;-86
2022/04/23 09:35:53;;;;;;;29.17;27.02;;;;;;;18.16;100.00;100288.06;4953216;28;20040;-80
2022/04/23 09:38:21;;;;;;;29.42;27.38;;;;;;;17.94;100.00;100275.66;4946757;28;20059;-82
2022/04/23 09:40:52;;;;;;;28.98;27.17;;;;;;;16.81;100.00;100274.28;4944912;28;20505;-82
2022/04/23 09:43:26;;;;;;;29.25;27.08;;;;;;;17.46;100.00;100282.16;4937214;29;20078;-83
2022/04/23 09:46:05;;;;;;;28.98;27.10;;;;;;;18.62;100.00;100280.81;4940339;29;20139;-86
2022/04/23 09:48:34;;;;;;;28.88;26.83;;;;;;;18.66;100.00;100283.78;4946144;29;20051;-86
2022/04/23 09:51:21;;;;;;;29.48;27.70;;;;;;;19.05;100.00;100277.84;4936317;29;20134;-83
2022/04/23 09:53:49;;;;;;;28.95;27.33;;;;;;;18.18;100.00;100288.59;4936895;29;20138;-82
2022/04/23 09:56:19;;;;;;;27.33;25.83;;;;;;;18.21;100.00;100272.72;4942508;28;20071;-81
2022/04/23 09:58:47;;;;;;;27.02;25.40;;;;;;;18.94;100.00;100277.03;4943473;29;20047;-86
2022/04/23 10:01:15;;;;;;;27.05;25.45;;;;;;;18.60;100.00;100274.09;4941486;28;20075;-85
2022/04/23 10:03:46;;;;;;;27.73;26.20;;;;;;;17.34;100.00;100285.91;4935946;29;20446;-84
2022/04/23 10:06:16;;;;;;;26.77;25.17;;;;;;;18.62;100.00;100282.72;4940168;29;20051;-83
2022/04/23 10:08:48;;;;;;;27.08;25.17;;;;;;;17.72;100.00;100293.81;4948492;29;20047;-81
2022/04/23 10:11:20;;;;;;;27.27;25.65;;;;;;;17.26;100.00;100286.38;4947475;29;20544;-81
2022/04/23 10:13:49;;;;;;;26.23;24.77;;;;;;;15.98;100.00;100277.31;4950900;28;20047;-85
2022/04/23 10:16:20;;;;;;;28.02;26.33;;;;;;;15.94;100.00;100268.16;4948830;28;20311;-81
2022/04/23 10:18:50;;;;;;;29.10;27.23;;;;;;;16.70;100.00;100272.56;4949555;28;20106;-86
2022/04/23 10:21:22;;;;;;;29.77;27.98;;;;;;;17.22;100.00;100265.72;4944907;29;20130;-84
2022/04/23 10:24:06;;;;;;;29.95;27.52;;;;;;;17.05;100.00;100268.56;4949414;29;20536;-81
2022/04/23 10:26:43;;;;;;;28.48;26.98;;;;;;;18.37;100.00;100267.41;4948319;28;20461;-87
2022/04/23 10:29:17;;;;;;;29.23;27.25;;;;;;;18.41;100.00;100276.53;4941227;29;20465;-84
2022/04/23 10:32:20;;;;;;;28.10;25.90;;;;;;;17.57;100.00;100271.22;4947996;28;20177;-82
2022/04/23 10:34:49;;;;;;;27.63;25.80;;;;;;;17.14;100.00;100272.38;4938179;28;20043;-82
2022/04/23 10:37:19;;;;;;;27.80;26.10;;;;;;;18.45;100.00;100258.78;4944255;29;20078;-82
2022/04/23 10:40:08;;;;;;;27.75;26.15;;;;;;;18.02;100.00;100274.34;4937922;29;20514;-87
2022/04/23 10:42:34;;;;;;;27.58;25.90;;;;;;;17.47;100.00;100278.44;4949389;29;20515;-87
2022/04/23 10:45:05;;;;;;;27.70;26.00;;;;;;;17.07;100.00;100280.66;4949825;28;20450;-80
2022/04/23 10:47:38;;;;;;;28.27;26.42;;;;;;;17.30;100.00;100279.41;4947537;28;20453;-84
2022/04/23 10:50:31;;;;;;;27.80;25.73;;;;;;;17.79;100.00;100280.97;4948476;29;20047;-82
2022/04/23 10:53:03;;;;;;;28.10;26.00;;;;;;;17.34;100.00;100288.56;4945913;28;20043;-85
2022/04/23 10:55:31;;;;;;;28.17;26.17;;;;;;;17.54;100.00;100281.66;4941019;28;20552;-80
2022/04/23 10:58:22;;;;;;;28.80;27.10;;;;;;;17.52;100.00;100286.47;4952852;29;20106;-84
2022/04/23 11:00:48;;;;;;;29.67;27.40;;;;;;;18.08;100.00;100278.63;4943631;29;20130;-81
2022/04/23 11:03:15;;;;;;;28.67;27.02;;;;;;;18.17;100.00;100276.25;4947499;28;20051;-82
2022/04/23 11:14:45;;;;;;;28.25;26.45;;;;;;;17.41;100.00;100280.28;4947528;29;20054;-82
2022/04/23 11:17:12;;;;;;;29.73;27.55;;;;;;;17.42;100.00;100281.88;4955088;29;20130;-83
2022/04/23 11:19:41;;;;;;;28.15;26.45;;;;;;;17.67;100.00;100294.63;4948437;28;20043;-82
2022/04/23 11:22:13;;;;;;;27.27;25.67;;;;;;;17.87;100.00;100291.22;4939571;29;20043;-81
2022/04/23 11:24:46;;;;;;;27.48;25.83;;;;;;;19.22;100.00;100271.06;4946311;29;20047;-85
2022/04/23 11:27:24;;;;;;;26.83;25.33;;;;;;;18.62;100.00;100282.72;4958325;28;20459;-84
2022/04/23 11:30:00;;;;;;;28.88;27.00;;;;;;;18.04;100.00;100273.00;4941373;29;20065;-85
2022/04/23 11:32:27;;;;;;;27.58;26.08;;;;;;;18.29;100.00;100274.09;4948596;29;20043;-83
2022/04/23 11:34:58;;;;;;;26.90;25.20;;;;;;;17.68;100.00;100268.56;4947449;28;20062;-82
2022/04/23 11:37:35;;;;;;;26.80;25.02;;;;;;;18.34;100.00;100273.31;4954690;29;20044;-87
2022/04/23 11:40:11;;;;;;;26.25;24.65;;;;;;;18.72;100.00;100280.81;4954612;28;20098;-82
2022/04/23 11:42:40;;;;;;;27.60;26.08;;;;;;;18.16;100.00;100271.94;4952707;29;20113;-88
2022/04/23 11:45:10;;;;;;;26.48;24.98;;;;;;;18.70;100.00;100276.81;4941223;28;20071;-83